Time;durP1;ratioP1;P1;durP2;ratioP2;P2;SDS_P1;SDS_P2;PMS_P1;PMS_P2;Temp;Humidity;BMP_temperature;BMP_pressure;BME280_temperature;BME280_humidity;BME280_pressure;Samples;Min_cycle;Max_cycle;Signal;HPM_P1;HPM_P2
2021/06/01 09:35:13;;;;;;;15.15;7.30;;;;;;;11.58;69.26;99780.41;1800988;77;22828;-83
2021/06/01 09:37:43;;;;;;;10.58;6.62;;;;;;;11.53;69.15;99774.36;1780080;79;21175;-83
2021/06/01 09:40:18;;;;;;;14.18;7.60;;;;;;;11.56;69.29;99771.06;1778693;79;21223;-81
2021/06/01 09:42:50;;;;;;;11.93;6.65;;;;;;;11.62;69.63;99765.06;1715233;82;21177;-82
2021/06/01 09:45:21;;;;;;;13.40;7.00;;;;;;;11.69;68.84;99765.70;1714682;83;21766;-81
2021/06/01 09:47:59;;;;;;;12.68;6.83;;;;;;;11.76;69.69;99766.28;1721898;83;21121;-82
2021/06/01 09:53:08;;;;;;;10.78;6.50;;;;;;;11.79;68.38;99764.37;1714521;83;21809;-86
2021/06/01 09:55:44;;;;;;;13.62;6.17;;;;;;;11.77;67.62;99757.77;1714540;83;21169;-87
2021/06/01 09:58:29;;;;;;;12.80;6.37;;;;;;;11.71;67.99;99760.77;1711053;83;21140;-83
2021/06/01 10:00:58;;;;;;;11.08;6.67;;;;;;;11.66;67.75;99758.81;1720627;83;21637;-83
2021/06/01 10:03:35;;;;;;;16.55;6.62;;;;;;;11.58;68.22;99765.34;1717977;83;21864;-82
2021/06/01 10:05:57;;;;;;;15.32;6.75;;;;;;;11.52;68.92;99771.33;1712664;83;21144;-81
2021/06/01 10:08:28;;;;;;;10.03;6.42;;;;;;;11.48;69.35;99758.70;1688372;83;21885;-83
2021/06/01 10:11:04;;;;;;;9.83;6.00;;;;;;;11.47;69.69;99763.09;1717743;83;21160;-82
2021/06/01 10:13:35;;;;;;;11.25;6.17;;;;;;;11.48;70.16;99762.80;1725893;83;21125;-84
2021/06/01 10:23:25;;;;;;;9.50;6.22;;;;;;;11.30;71.88;99768.77;1823380;77;22643;-82
2021/06/01 10:25:49;;;;;;;10.08;5.75;;;;;;;11.22;72.81;99769.79;1765939;80;21764;-84
2021/06/01 10:28:28;;;;;;;11.30;6.33;;;;;;;11.22;72.22;99765.14;1734921;81;21152;-85
2021/06/01 10:30:49;;;;;;;10.50;6.10;;;;;;;11.21;73.14;99771.70;1758218;79;21128;-81
2021/06/01 10:33:17;;;;;;;11.25;6.42;;;;;;;11.20;73.30;99773.34;1707168;83;21152;-85
2021/06/01 10:35:55;;;;;;;12.50;6.03;;;;;;;11.19;73.38;99771.14;1721161;82;21154;-82
2021/06/01 10:52:28;;;;;;;9.85;5.60;;;;;;;11.31;73.80;99755.86;1701873;82;21170;-80
2021/06/01 10:55:03;;;;;;;9.80;5.15;;;;;;;11.28;73.51;99753.11;1724644;81;21193;-80
2021/06/01 10:57:52;;;;;;;10.63;5.65;;;;;;;11.31;73.33;99754.48;1698723;82;21587;-79
2021/06/01 11:03:19;;;;;;;9.30;5.55;;;;;;;11.24;73.32;99745.16;1718463;82;21470;-80
2021/06/01 11:06:00;;;;;;;9.23;5.47;;;;;;;11.25;73.96;99748.72;1716862;82;21200;-80
2021/06/01 11:08:43;;;;;;;10.35;5.45;;;;;;;11.27;74.18;99749.28;1687703;82;21640;-79
2021/06/01 11:11:32;;;;;;;8.88;5.80;;;;;;;11.25;74.33;99760.52;1718615;82;21198;-80
2021/06/01 11:14:16;;;;;;;9.80;5.90;;;;;;;11.25;75.05;99759.14;1718477;82;21173;-81
2021/06/01 11:16:59;;;;;;;9.40;6.45;;;;;;;11.23;75.21;99755.02;1669353;84;21164;-83
2021/06/01 11:19:58;;;;;;;11.60;7.37;;;;;;;11.21;75.37;99746.21;1709786;83;21145;-82
2021/06/01 11:22:41;;;;;;;11.33;7.00;;;;;;;11.18;75.54;99751.67;1727685;82;21184;-83
2021/06/01 11:33:32;;;;;;;9.43;6.00;;;;;;;10.94;77.60;99744.13;1687762;83;21176;-82
2021/06/01 11:36:12;;;;;;;10.40;6.67;;;;;;;10.91;77.77;99740.54;1686719;83;21148;-81
2021/06/01 11:38:56;;;;;;;12.60;7.15;;;;;;;10.88;78.13;99732.88;1718239;82;21133;-82
2021/06/01 11:44:29;;;;;;;11.75;6.50;;;;;;;10.83;79.03;99737.21;1696072;82;21188;-82
2021/06/01 11:47:27;;;;;;;10.95;6.95;;;;;;;10.81;79.63;99741.30;1719342;82;21160;-82
2021/06/01 11:52:30;;;;;;;10.95;6.65;;;;;;;10.84;79.83;99739.41;1639672;85;21493;-80
2021/06/01 12:03:32;;;;;;;9.65;6.92;;;;;;;10.87;80.47;99736.69;1821727;77;22536;-82
2021/06/01 12:12:08;;;;;;;;;;;;;;;10.71;80.69;99742.59;1735365;80;21202;-81
2021/06/01 12:17:17;;;;;;;10.72;7.33;;;;;;;10.67;80.92;99730.53;1727729;80;21157;-83
2021/06/01 12:19:45;;;;;;;12.75;8.03;;;;;;;10.66;80.89;99737.08;1758352;80;21307;-76
2021/06/01 12:22:13;;;;;;;13.13;7.53;;;;;;;10.65;80.99;99733.50;1679504;83;21231;-84
2021/06/01 12:24:43;;;;;;;11.78;7.87;;;;;;;10.64;80.95;99729.67;1684874;83;21179;-83
2021/06/01 12:27:24;;;;;;;;;;;;;;;10.62;81.37;99727.21;1683171;83;21682;-82
2021/06/01 12:32:34;;;;;;;12.75;8.18;;;;;;;10.60;82.24;99719.78;1686410;83;21709;-79
2021/06/01 12:35:40;;;;;;;16.10;8.98;;;;;;;10.63;82.40;99721.17;1686466;83;21246;-83
2021/06/01 13:20:42;;;;;;;16.52;9.60;;;;;;;10.62;83.74;99716.27;1684654;83;21617;-80
2021/06/01 13:37:14;;;;;;;17.90;11.20;;;;;;;10.51;85.06;99722.73;1681021;84;21237;-81
2021/06/01 13:48:08;;;;;;;10.85;7.97;;;;;;;10.43;85.04;99721.83;1699516;82;21184;-79
2021/06/01 13:50:33;;;;;;;13.65;7.80;;;;;;;10.38;85.74;99719.05;1702824;82;21369;-82
2021/06/01 13:55:47;;;;;;;14.93;8.40;;;;;;;10.33;85.29;99728.58;1665235;82;21755;-85
2021/06/01 14:01:09;;;;;;;11.55;6.92;;;;;;;10.30;86.27;99729.63;1698299;82;21178;-83
2021/06/01 14:36:49;;;;;;;7.45;4.67;;;;;;;10.13;86.91;99742.06;1689527;83;21183;-82
2021/06/01 14:39:29;;;;;;;10.18;4.35;;;;;;;10.12;86.71;99739.03;1684802;83;21628;-81
2021/06/01 15:50:31;;;;;;;12.37;6.55;;;;;;;9.74;88.27;99747.34;1643574;85;21197;-85
2021/06/01 15:53:31;;;;;;;13.90;7.40;;;;;;;9.70;88.55;99740.73;1724850;80;21156;-87
2021/06/01 16:11:14;;;;;;;11.65;7.47;;;;;;;9.67;88.55;99729.77;1733285;82;21664;-80
2021/06/01 16:12:32;;;;;;;16.85;8.68;;;;;;;9.39;90.40;99709.47;1679233;83;21149;-74
2021/06/01 16:23:10;;;;;;;17.80;9.90;;;;;;;9.25;91.49;99710.94;1687325;83;21674;-74
2021/06/01 17:06:51;;;;;;;15.48;9.53;;;;;;;9.02;93.26;99704.34;1658522;84;21477;-70
2021/06/01 17:12:07;;;;;;;21.68;11.65;;;;;;;9.02;93.20;99709.80;1688688;83;21153;-73
2021/06/01 17:14:37;;;;;;;17.75;9.58;;;;;;;9.02;93.36;99716.09;1681661;83;21133;-76
2021/06/01 17:17:07;;;;;;;17.73;10.10;;;;;;;9.02;93.27;99718.81;1682527;83;21205;-74
2021/06/01 17:36:03;;;;;;;20.27;8.73;;;;;;;9.05;93.48;99718.85;1690040;84;21215;-71
2021/06/01 17:38:31;;;;;;;19.02;8.13;;;;;;;9.07;93.81;99718.89;1721557;82;21157;-71
2021/06/01 17:41:01;;;;;;;16.57;8.30;;;;;;;9.07;93.82;99717.52;1708135;82;21754;-73
2021/06/01 17:43:33;;;;;;;14.75;7.03;;;;;;;9.08;93.61;99719.72;1658664;84;21570;-73
2021/06/01 17:46:05;;;;;;;14.25;7.75;;;;;;;9.07;93.47;99720.25;1675828;84;21202;-74
2021/06/01 17:48:48;;;;;;;13.15;7.30;;;;;;;9.08;93.80;99725.18;1690376;82;21458;-80
2021/06/01 17:51:09;;;;;;;18.17;7.15;;;;;;;9.08;93.72;99720.55;1729994;82;21661;-78
2021/06/01 17:53:45;;;;;;;16.77;6.78;;;;;;;9.09;93.58;99724.91;1718443;82;21755;-73
2021/06/01 17:56:19;;;;;;;16.12;6.30;;;;;;;9.13;93.64;99723.36;1680581;83;21220;-74
2021/06/01 17:58:48;;;;;;;13.43;6.53;;;;;;;9.14;93.50;99724.16;1691045;83;21177;-74
2021/06/01 18:01:22;;;;;;;14.13;7.17;;;;;;;9.14;93.40;99723.62;1666451;84;21164;-75
2021/06/01 18:04:25;;;;;;;12.65;6.80;;;;;;;9.15;93.58;99726.66;1679206;83;21210;-75
2021/06/01 18:06:45;;;;;;;10.08;6.17;;;;;;;9.18;93.57;99726.16;1680159;83;21192;-74
2021/06/01 18:09:36;;;;;;;15.60;6.92;;;;;;;9.17;93.16;99722.29;1686457;83;21589;-75
2021/06/01 19:43:55;;;;;;;11.65;6.30;;;;;;;9.44;92.44;99724.02;1689695;83;21220;-81
2021/06/01 19:51:22;;;;;;;10.80;5.72;;;;;;;9.48;92.06;99717.52;1687669;82;21606;-80
2021/06/01 19:53:50;;;;;;;10.08;5.40;;;;;;;9.47;92.12;99707.12;1687922;83;21223;-80
2021/06/01 19:56:18;;;;;;;10.78;6.00;;;;;;;9.48;92.14;99706.06;1681946;83;21230;-78
2021/06/01 19:58:48;;;;;;;9.58;5.75;;;;;;;9.49;92.39;99706.33;1677618;83;21743;-80
2021/06/01 20:01:16;;;;;;;12.23;5.90;;;;;;;9.51;92.16;99697.33;1683529;82;21350;-78
2021/06/01 20:03:45;;;;;;;10.28;5.53;;;;;;;9.51;92.24;99697.90;1682629;84;21711;-78
2021/06/01 20:06:13;;;;;;;11.93;5.62;;;;;;;9.51;92.36;99698.70;1688404;82;21159;-79
2021/06/01 20:08:43;;;;;;;13.65;5.45;;;;;;;9.52;92.21;99693.53;1686337;84;21343;-80
2021/06/01 20:11:12;;;;;;;13.62;5.55;;;;;;;9.52;92.14;99696.27;1686445;82;21283;-77
2021/06/01 20:13:41;;;;;;;12.55;5.90;;;;;;;9.54;92.09;99689.16;1685285;84;21152;-77
2021/06/01 20:16:11;;;;;;;13.72;5.72;;;;;;;9.55;91.89;99688.09;1652255;85;21173;-76
2021/06/01 20:18:39;;;;;;;;;;;;;;;9.53;91.87;99687.00;1688938;84;21161;-75
2021/06/01 20:21:09;;;;;;;8.90;5.40;;;;;;;9.53;92.01;99687.00;1686584;82;20230;-78
2021/06/01 20:23:41;;;;;;;10.10;5.40;;;;;;;9.54;92.08;99685.91;1689556;83;21194;-76
2021/06/01 20:26:16;;;;;;;11.08;5.58;;;;;;;9.56;92.01;99685.66;1681633;82;21634;-78
2021/06/01 20:28:50;;;;;;;9.73;5.85;;;;;;;9.58;91.71;99686.23;1662025;83;21547;-73
2021/06/01 20:31:19;;;;;;;9.93;5.47;;;;;;;9.61;91.55;99682.16;1644605;84;21203;-72
2021/06/01 20:33:48;;;;;;;9.93;5.78;;;;;;;9.63;91.56;99680.82;1684864;82;21604;-74
2021/06/01 20:36:18;;;;;;;12.28;6.53;;;;;;;9.64;91.41;99685.75;1684009;82;21150;-72
2021/06/01 20:38:50;;;;;;;12.60;6.08;;;;;;;9.64;91.65;99685.75;1663204;84;21180;-74
2021/06/01 20:41:19;;;;;;;11.35;5.92;;;;;;;9.65;91.38;99684.65;1681595;82;21231;-76
2021/06/01 20:43:47;;;;;;;12.55;6.10;;;;;;;9.67;91.43;99680.58;1688392;82;21639;-75
2021/06/01 20:46:15;;;;;;;10.43;5.92;;;;;;;9.69;91.32;99684.44;1693081;82;21203;-76
2021/06/01 20:48:45;;;;;;;11.05;6.05;;;;;;;9.69;90.99;99685.81;1689405;82;21702;-76
2021/06/01 20:51:14;;;;;;;9.23;5.25;;;;;;;9.68;91.12;99685.51;1687928;82;21302;-74
2021/06/01 20:53:43;;;;;;;10.08;5.25;;;;;;;9.71;91.00;99686.37;1701881;82;21301;-75
2021/06/01 20:56:11;;;;;;;8.68;4.85;;;;;;;9.74;91.14;99679.03;1684645;84;21282;-71
2021/06/01 20:58:43;;;;;;;10.48;6.17;;;;;;;9.76;91.18;99675.49;1701314;82;21260;-73
2021/06/01 21:01:14;;;;;;;12.60;6.05;;;;;;;9.77;91.00;99669.75;1664802;83;21169;-76
2021/06/01 21:03:45;;;;;;;11.55;5.35;;;;;;;9.77;90.99;99675.22;1674560;83;21179;-77
2021/06/01 21:06:13;;;;;;;13.75;5.70;;;;;;;9.79;91.03;99664.05;1708729;82;21140;-77
2021/06/01 21:08:43;;;;;;;12.33;5.67;;;;;;;9.78;90.89;99672.78;1687323;83;21562;-76
2021/06/01 21:11:13;;;;;;;10.15;6.37;;;;;;;9.78;90.88;99677.42;1658019;82;21152;-73
2021/06/01 21:13:43;;;;;;;11.75;5.47;;;;;;;9.78;91.00;99671.95;1701762;82;21665;-75
2021/06/01 21:16:11;;;;;;;;;;;;;;;9.77;91.30;99682.59;1693905;83;21619;-75
2021/06/01 21:18:42;;;;;;;9.98;5.75;;;;;;;9.78;91.25;99685.62;1689274;84;20225;-75
2021/06/01 21:21:11;;;;;;;15.65;5.83;;;;;;;9.77;91.41;99677.95;1681311;82;21203;-73
2021/06/01 21:23:39;;;;;;;8.43;5.37;;;;;;;9.78;91.45;99680.98;1700861;83;21172;-72
2021/06/01 21:26:09;;;;;;;10.60;5.33;;;;;;;9.80;91.46;99682.08;1698123;82;21147;-77
2021/06/01 21:28:38;;;;;;;11.78;5.85;;;;;;;9.83;91.05;99679.67;1681023;83;21152;-76
2021/06/01 21:31:07;;;;;;;11.85;5.83;;;;;;;9.85;91.34;99685.70;1693999;83;21187;-76
2021/06/01 21:33:41;;;;;;;9.80;4.85;;;;;;;9.86;91.16;99672.33;1720549;83;21167;-76
2021/06/01 21:36:12;;;;;;;11.88;5.08;;;;;;;9.85;91.43;99673.94;1691762;83;21175;-75
2021/06/01 21:38:44;;;;;;;12.55;5.35;;;;;;;9.85;91.58;99680.77;1679069;84;21605;-79
2021/06/01 21:41:13;;;;;;;12.63;5.33;;;;;;;9.84;91.84;99685.97;1684046;83;21170;-78
2021/06/01 21:43:41;;;;;;;10.85;5.58;;;;;;;9.81;91.69;99683.21;1691017;85;21197;-78
2021/06/01 21:46:11;;;;;;;11.73;5.42;;;;;;;9.81;91.91;99680.48;1693866;83;21272;-78
2021/06/01 21:48:43;;;;;;;10.55;5.03;;;;;;;9.81;92.17;99676.91;1667707;84;21200;-77
2021/06/01 21:51:11;;;;;;;10.40;5.15;;;;;;;9.80;92.00;99674.71;1689266;83;21179;-75
2021/06/01 21:53:42;;;;;;;8.80;5.30;;;;;;;9.79;91.90;99678.52;1676371;84;21156;-79
2021/06/01 21:56:12;;;;;;;12.03;4.95;;;;;;;9.81;91.98;99679.64;1680957;83;21271;-77
2021/06/01 21:58:41;;;;;;;10.25;5.20;;;;;;;9.81;91.86;99680.48;1676316;83;21160;-76
2021/06/01 22:01:09;;;;;;;9.90;5.03;;;;;;;9.82;92.09;99677.17;1631751;83;21207;-77
2021/06/01 22:03:37;;;;;;;11.88;5.33;;;;;;;9.84;92.22;99668.20;1681802;83;21606;-77
2021/06/01 22:06:05;;;;;;;12.85;5.45;;;;;;;9.84;92.03;99667.64;1664341;85;21180;-78
2021/06/01 22:08:34;;;;;;;;;;;;;;;9.83;92.10;99668.73;1651767;84;21207;-77
2021/06/01 22:11:02;;;;;;;11.18;5.78;;;;;;;9.83;92.18;99650.97;1672778;83;20596;-78
2021/06/01 22:13:30;;;;;;;;;;;;;;;9.82;92.01;99650.67;1711799;82;21612;-77
2021/06/01 22:16:04;;;;;;;9.63;5.03;;;;;;;9.84;92.34;99644.97;1684038;83;20224;-76
2021/06/01 22:18:40;;;;;;;10.98;5.65;;;;;;;9.85;92.19;99635.67;1695689;82;21627;-79
2021/06/01 22:21:12;;;;;;;16.70;5.20;;;;;;;9.85;92.01;99633.77;1676655;83;21148;-78
2021/06/01 22:23:55;;;;;;;12.78;5.53;;;;;;;9.85;92.07;99630.20;1713786;82;21156;-78
2021/06/01 22:26:28;;;;;;;10.15;5.10;;;;;;;9.85;92.28;99620.10;1712697;83;21147;-79
2021/06/01 22:28:57;;;;;;;10.53;5.30;;;;;;;9.86;92.35;99620.39;1712033;82;21167;-79
2021/06/01 22:31:35;;;;;;;13.58;5.72;;;;;;;9.88;92.30;99627.79;1705652;82;21156;-78
2021/06/01 22:34:04;;;;;;;8.95;5.30;;;;;;;9.90;92.36;99621.52;1683256;83;21168;-77
2021/06/01 22:36:34;;;;;;;;;;;;;;;9.90;92.19;99618.78;1673576;83;21632;-77
2021/06/01 22:39:12;;;;;;;11.30;5.60;;;;;;;9.91;92.20;99618.24;1706793;82;20279;-78
2021/06/01 22:41:40;;;;;;;10.45;4.85;;;;;;;9.90;91.92;99607.02;1704801;82;21297;-79
2021/06/01 22:44:10;;;;;;;9.10;5.17;;;;;;;9.89;92.03;99608.92;1704175;83;21593;-78
2021/06/01 22:46:39;;;;;;;10.00;5.33;;;;;;;9.92;92.03;99602.11;1697307;84;21192;-78
2021/06/01 22:49:11;;;;;;;10.90;5.40;;;;;;;9.91;91.82;99603.21;1691995;83;21587;-77
2021/06/01 22:51:41;;;;;;;11.40;5.60;;;;;;;9.91;92.16;99601.30;1702410;83;21611;-77
2021/06/01 22:54:10;;;;;;;13.13;6.03;;;;;;;9.93;92.34;99610.06;1684829;83;21188;-76
2021/06/01 22:56:45;;;;;;;10.05;5.35;;;;;;;9.95;91.97;99609.80;1686719;84;21190;-76
2021/06/01 22:59:17;;;;;;;15.10;5.60;;;;;;;9.96;91.83;99599.16;1714935;83;22928;-76
2021/06/01 23:01:44;;;;;;;14.83;5.90;;;;;;;9.97;91.73;99596.14;1679892;83;21148;-76
2021/06/01 23:04:14;;;;;;;13.95;5.12;;;;;;;9.96;91.96;99589.05;1689674;83;21224;-76
2021/06/01 23:06:44;;;;;;;9.23;5.00;;;;;;;9.98;91.90;99599.71;1684592;83;21667;-76
2021/06/01 23:09:14;;;;;;;10.03;4.95;;;;;;;9.98;91.67;99601.08;1692010;84;21206;-77
2021/06/01 23:11:47;;;;;;;12.55;5.12;;;;;;;9.99;91.79;99598.07;1707012;82;21179;-76
2021/06/01 23:14:24;;;;;;;9.80;5.62;;;;;;;10.00;91.54;99594.27;1680604;85;21764;-77
2021/06/01 23:16:53;;;;;;;11.78;5.15;;;;;;;10.02;91.51;99595.36;1664789;84;21303;-85
2021/06/01 23:19:22;;;;;;;10.82;5.50;;;;;;;10.03;91.52;99589.65;1690350;82;21190;-81
2021/06/01 23:21:52;;;;;;;11.60;5.45;;;;;;;10.03;91.49;99597.02;1689517;82;21199;-77
2021/06/01 23:24:23;;;;;;;12.05;5.40;;;;;;;10.02;91.62;99600.29;1693848;82;21159;-77
2021/06/01 23:26:52;;;;;;;11.70;5.80;;;;;;;10.05;91.61;99609.88;1709748;82;21173;-78
2021/06/01 23:29:21;;;;;;;10.43;4.97;;;;;;;10.06;91.52;99599.23;1699056;83;21197;-80
2021/06/01 23:31:55;;;;;;;12.18;4.95;;;;;;;10.06;91.38;99600.61;1689343;83;21893;-80
2021/06/01 23:34:31;;;;;;;9.10;4.95;;;;;;;10.06;91.48;99595.14;1705073;84;21652;-79
2021/06/01 23:37:08;;;;;;;8.35;4.75;;;;;;;10.05;91.52;99593.48;1667949;82;21128;-79
2021/06/01 23:40:04;;;;;;;10.53;5.00;;;;;;;10.05;91.59;99593.48;1677994;84;21753;-78
2021/06/01 23:42:38;;;;;;;10.63;5.30;;;;;;;10.05;91.46;99592.11;1703887;82;21148;-77
2021/06/01 23:45:14;;;;;;;9.45;5.12;;;;;;;10.05;91.63;99597.58;1691462;83;21156;-76
2021/06/01 23:50:25;;;;;;;12.30;5.20;;;;;;;10.10;91.44;99592.15;1678947;84;21266;-79
2021/06/01 23:52:55;;;;;;;10.68;5.03;;;;;;;10.12;91.60;99579.89;1693397;83;21162;-76
2021/06/01 23:55:24;;;;;;;11.10;5.10;;;;;;;10.13;91.39;99587.03;1716895;83;21663;-79
2021/06/01 23:57:56;;;;;;;10.15;5.20;;;;;;;10.14;91.22;99583.75;1686913;82;21675;-80
